»·PEaware :: UAL460 KMFR-KSFO

UAL460 :: KMFR-KSFO

FLIGHT INFORMATION

Flight Status: Arrived
Operator:
United Airlines
More flights by this operator :: More flights under this callsign
Pilot: Brandon F. (14792)
Aircraft: Unknown
(A359)
More flights by this aircraft type
Origin: KMFR Rogue Valley Intl-Medford
United States
Destination: KSFO San Francisco Intl
United States
More flights between these airports :: More routes between these airports
Route: JKSN1 OED MLBEC BDEGA2
File this flight plan on PilotEdge
Remarks:
Altitude:
(Current/Filed)
38,000ft
Speed:
(Current/Filed)
508kts
Departed: 13-Aug-18 04:30 PM
Arrived: 13-Aug-18 05:35 PM
Distance/Time
Traveled:
286nm/1:05
Distance/Time
To Go:
Arrived

Flight Plot

Page will automatically refresh every two minutes.

Flight plan parsing failed; only flown route is shown


Map Options




Map Legend


Flown Route
Filed Route
Departure Airport
Arrival Airport
Navaid (VOR, NDB)
Fix

Horizontal Profiles

Position Reports

Time Latitude Longitude Heading Altitude Ground
Speed
13-Aug-18 16:06 42.369163 -122.873098 254 1348ft 0kts
13-Aug-18 16:07 42.369163 -122.873098 254 1348ft 0kts
13-Aug-18 16:08 42.369163 -122.873098 254 1348ft 0kts
13-Aug-18 16:09 42.369163 -122.873098 254 1348ft 0kts
13-Aug-18 16:10 42.369163 -122.873098 254 1348ft 0kts
13-Aug-18 16:11 42.369163 -122.873098 254 1348ft 0kts
13-Aug-18 16:12 42.369163 -122.873098 254 1348ft 0kts
13-Aug-18 16:13 42.369163 -122.873098 254 1348ft 0kts
13-Aug-18 16:14 42.369163 -122.873098 254 1348ft 0kts
13-Aug-18 16:15 42.369163 -122.873098 254 1348ft 0kts
13-Aug-18 16:16 42.369163 -122.873098 254 1348ft 0kts
13-Aug-18 16:17 42.369163 -122.873098 254 1348ft 0kts
13-Aug-18 16:18 42.369163 -122.873098 254 1348ft 0kts
13-Aug-18 16:19 42.369163 -122.873098 254 1348ft 0kts
13-Aug-18 16:20 42.369163 -122.873098 254 1348ft 0kts
13-Aug-18 16:21 42.369163 -122.873099 254 1348ft 0kts
13-Aug-18 16:22 42.369284 -122.872490 256 1348ft 3kts
13-Aug-18 16:23 42.369079 -122.871781 338 1348ft 0kts
13-Aug-18 16:24 42.369082 -122.871781 338 1348ft 0kts
13-Aug-18 16:25 42.369082 -122.871781 338 1348ft 0kts
13-Aug-18 16:26 42.369082 -122.871781 338 1348ft 0kts
13-Aug-18 16:27 42.370014 -122.872276 339 1348ft 22kts
13-Aug-18 16:28 42.376456 -122.875631 338 1348ft 23kts
13-Aug-18 16:29 42.383203 -122.879267 339 1348ft 25kts
13-Aug-18 16:30 42.385865 -122.879278 118 1348ft 10kts
13-Aug-18 16:31 42.353432 -122.862453 164 2542ft 209kts
13-Aug-18 16:32 42.314445 -122.906321 289 5744ft 257kts
13-Aug-18 16:33 42.367794 -122.958094 8 9865ft 267kts
13-Aug-18 16:34 42.422522 -122.890284 85 12885ft 305kts
13-Aug-18 16:35 42.363004 -122.836174 207 15500ft 323kts
13-Aug-18 16:36 42.287717 -122.903533 205 18752ft 336kts
13-Aug-18 16:37 42.194668 -122.925212 181 21854ft 354kts
13-Aug-18 16:38 42.095529 -122.919224 183 24661ft 365kts
13-Aug-18 16:39 41.998909 -122.919063 185 27150ft 377kts
13-Aug-18 16:40 41.909350 -122.920033 186 29256ft 387kts
13-Aug-18 16:41 41.815150 -122.921251 186 31287ft 398kts
13-Aug-18 16:42 41.705613 -122.922665 186 33424ft 409kts
13-Aug-18 16:43 41.614281 -122.923865 186 35032ft 419kts
13-Aug-18 16:44 41.503069 -122.925329 186 36778ft 431kts
13-Aug-18 16:45 41.392071 -122.926764 186 37953ft 449kts
13-Aug-18 16:46 41.290459 -122.928122 186 37969ft 476kts
13-Aug-18 16:47 41.136252 -122.929945 186 37970ft 478kts
13-Aug-18 16:48 41.003209 -122.931741 184 37947ft 480kts
13-Aug-18 16:49 40.912667 -122.932904 184 37906ft 482kts
13-Aug-18 16:50 40.767265 -122.934672 184 37875ft 482kts
13-Aug-18 16:51 40.655644 -122.936088 184 37870ft 482kts
13-Aug-18 16:52 40.522058 -122.937800 184 37869ft 482kts
13-Aug-18 16:53 40.367500 -122.939741 184 37870ft 482kts
13-Aug-18 16:54 40.256334 -122.941119 184 37870ft 482kts
13-Aug-18 16:55 40.122393 -122.942799 184 37879ft 482kts
13-Aug-18 16:56 39.988566 -122.944482 184 37886ft 482kts
13-Aug-18 16:57 39.855246 -122.946162 184 37888ft 482kts
13-Aug-18 16:58 39.721504 -122.947827 184 37890ft 482kts
13-Aug-18 16:59 39.587873 -122.949493 184 37895ft 482kts
13-Aug-18 17:00 39.455770 -122.951135 184 37896ft 482kts
13-Aug-18 17:01 39.322464 -122.952733 184 37623ft 477kts
13-Aug-18 17:02 39.192260 -122.954346 184 35502ft 464kts
13-Aug-18 17:03 39.090485 -122.955620 184 33919ft 453kts
13-Aug-18 17:04 38.967031 -122.957270 183 31933ft 441kts
13-Aug-18 17:05 38.846370 -122.949435 171 30077ft 432kts
13-Aug-18 17:06 38.731340 -122.915744 168 28375ft 420kts
13-Aug-18 17:07 38.619391 -122.882779 168 26656ft 410kts
13-Aug-18 17:08 38.509875 -122.850536 168 24935ft 400kts
13-Aug-18 17:09 38.404177 -122.819522 168 23239ft 390kts
13-Aug-18 17:10 38.300277 -122.789145 168 21533ft 380kts
13-Aug-18 17:11 38.198720 -122.759509 168 19819ft 370kts
13-Aug-18 17:12 38.099953 -122.730832 168 18115ft 361kts
13-Aug-18 17:13 38.003478 -122.702873 168 16431ft 353kts
13-Aug-18 17:14 37.912003 -122.675024 160 14806ft 346kts
13-Aug-18 17:15 37.846464 -122.616907 140 13442ft 340kts
13-Aug-18 17:16 37.802790 -122.570353 141 12357ft 315kts
13-Aug-18 17:17 37.764633 -122.529948 141 11448ft 293kts
13-Aug-18 17:18 37.728001 -122.491231 141 11004ft 292kts
13-Aug-18 17:19 37.689313 -122.450070 141 11005ft 292kts
13-Aug-18 17:20 37.656916 -122.415504 140 10467ft 288kts
13-Aug-18 17:21 37.616361 -122.369764 140 9605ft 284kts
13-Aug-18 17:22 37.575813 -122.336374 153 8806ft 280kts
13-Aug-18 17:23 37.532940 -122.307397 153 7924ft 272kts
13-Aug-18 17:24 37.497303 -122.283331 153 6760ft 268kts
13-Aug-18 17:25 37.457637 -122.256656 153 5466ft 265kts
13-Aug-18 17:26 37.414384 -122.219417 111 4090ft 256kts
13-Aug-18 17:27 37.438471 -122.167197 15 3997ft 236kts
13-Aug-18 17:28 37.482290 -122.150833 13 3835ft 199kts
13-Aug-18 17:29 37.518906 -122.167693 323 3412ft 147kts
13-Aug-18 17:30 37.545699 -122.204219 301 2711ft 151kts
13-Aug-18 17:31 37.562706 -122.241280 298 2078ft 139kts
13-Aug-18 17:32 37.579242 -122.280419 296 1408ft 128kts
13-Aug-18 17:33 37.593909 -122.315635 295 808ft 123kts
13-Aug-18 17:34 37.606812 -122.346569 295 279ft 122kts
13-Aug-18 17:35 37.617333 -122.372065 298 27ft 67kts
13-Aug-18 17:36 37.618965 -122.378272 266 27ft 19kts
13-Aug-18 17:37 37.620170 -122.383466 299 27ft 16kts
13-Aug-18 17:38 37.621789 -122.388778 227 27ft 14kts

Navigation Log

Ident Type
Flight plan parsing failed, navigation log unavailable